Chautauqua County-Dunkirk Airport


Codes: KDKK/DKK
Name: Chautauqua County-Dunkirk Airport
City: Dunkirk
Country: United States
Elevation: 693 ft.
Wikipedia:

Photos at Chautauqua County-Dunkirk Airport


   Photos courtesy of SpottingLog. You can add your own sightings and photos by signing up for a free trial today.



No photos found.

Weather at Chautauqua County-Dunkirk Airport


Time (UTC)DescriptionTempratureWindCloud coverageVisibilityPressureHumidity
21-Jun-2024 12:00Scattered Clouds21°C4 mph, SW32%10000m1023hPa94%
21-Jun-2024 15:00Light Rain22°C7 mph, NW15%10000m1023hPa92%
21-Jun-2024 18:00Light Rain24°C2 mph, NW19%10000m1021hPa85%
21-Jun-2024 21:00Light Rain25°C4 mph, NW65%10000m1020hPa84%
22-Jun-2024 00:00Light Rain24°C4 mph, SW33%10000m1019hPa86%
22-Jun-2024 03:00Clear Sky22°C4 mph, SW10%10000m1019hPa89%
22-Jun-2024 06:00Light Rain21°C4 mph, SW42%10000m1019hPa90%
22-Jun-2024 09:00Light Rain21°C9 mph, S100%10000m1017hPa86%
22-Jun-2024 12:00Overcast Clouds23°C9 mph, S100%10000m1016hPa85%
22-Jun-2024 15:00Light Rain25°C11 mph, SW100%10000m1016hPa84%
22-Jun-2024 18:00Light Rain26°C16 mph, SW86%10000m1014hPa75%
22-Jun-2024 21:00Light Rain26°C13 mph, W22%10000m1013hPa76%
23-Jun-2024 00:00Few Clouds25°C13 mph, SW16%10000m1011hPa75%
23-Jun-2024 03:00Broken Clouds25°C13 mph, SW74%10000m1009hPa69%
23-Jun-2024 06:00Light Rain23°C7 mph, SW88%10000m1008hPa83%
23-Jun-2024 09:00Light Rain22°C16 mph, SW100%10000m1006hPa85%
23-Jun-2024 12:00Light Rain21°C20 mph, SW100%10000m1006hPa93%
23-Jun-2024 15:00Light Rain23°C25 mph, SW100%10000m1004hPa87%
23-Jun-2024 18:00Light Rain22°C27 mph, SW100%10000m1004hPa91%
23-Jun-2024 21:00Light Rain22°C20 mph, W83%10000m1005hPa84%
24-Jun-2024 00:00Light Rain19°C16 mph, N88%10000m1007hPa89%
24-Jun-2024 03:00Light Rain18°C9 mph, N99%10000m1008hPa89%
24-Jun-2024 06:00Light Rain17°C9 mph, NE100%10000m1009hPa89%
24-Jun-2024 09:00Broken Clouds16°C2 mph, NE77%10000m1009hPa87%
24-Jun-2024 12:00Broken Clouds18°C4 mph, NE55%10000m1011hPa85%
24-Jun-2024 15:00Scattered Clouds19°C4 mph, NE30%10000m1012hPa75%
24-Jun-2024 18:00Few Clouds20°C4 mph, NW16%10000m1012hPa72%
24-Jun-2024 21:00Clear Sky21°C7 mph, W7%10000m1011hPa66%
25-Jun-2024 00:00Clear Sky20°C4 mph, SW3%10000m1012hPa72%
25-Jun-2024 03:00Clear Sky17°C7 mph, S3%10000m1012hPa74%
25-Jun-2024 06:00Clear Sky17°C9 mph, S3%10000m1012hPa66%
25-Jun-2024 09:00Scattered Clouds17°C9 mph, S34%10000m1012hPa72%
25-Jun-2024 12:00Scattered Clouds19°C9 mph, S37%10000m1012hPa75%
25-Jun-2024 15:00Overcast Clouds24°C11 mph, S100%10000m1011hPa71%
25-Jun-2024 18:00Overcast Clouds27°C11 mph, SW98%10000m1009hPa67%
25-Jun-2024 21:00Scattered Clouds28°C16 mph, SW49%10000m1006hPa68%
26-Jun-2024 00:00Broken Clouds26°C11 mph, SW75%10000m1006hPa72%
26-Jun-2024 03:00Light Rain23°C11 mph, S100%3325m1005hPa90%
26-Jun-2024 06:00Moderate Rain23°C18 mph, SW100%10000m1004hPa88%
26-Jun-2024 09:00Overcast Clouds24°C16 mph, SW100%10000m1004hPa82%